Delta Virtual Airport Information Service

Luanda Quatro de Fevereiro Airport

ICAO: FNLU Country: Angola
Latitude: -8.85837 Longitude: 13.2312
Latest Arrival : DAC134 (GLRB-FNLU) Latest Departure : DAC135 (FNLU-GLRB)


WX CaptureLIVE
Data provided by noaa.gov | Fetched at 11:14:01

METAR : FNLU 281600Z 22005KT 9999 FEW020 26/23 Q1009 NOSIG

TAF : FNLU 281100Z 2812/2918 20008KT 9999 FEW020 PROB30 TEMPO 2814/2818 25012KT CAVOK BECMG 2820/2822 8000 SCT020


Runway Data for FNLU
Data provided by openaviationdata.com

Runway ID Mag Var Hdg Length Elevation Surface ILS Freq ILS Id ILS Slope
5 -7 53° 12165 ft 235 ft Asphalt -- -- --
7 -7 74° 8170 ft 235 ft Asphalt -- -- --
23 -7 233° 12165 ft 235 ft Asphalt 110.3 ILD 3
25 -7 254° 8170 ft 235 ft Asphalt -- -- --

Luanda Quatro de Fevereiro Airport, Angola
Use only for reference purposes



Not for navigational purposes.